OKBK/KWI METAR and TAF weather

Enter ICAO airport designator
Station Type Date Time Source
OKBK METAR 2021/07/28 04:00 UTC NOAA

OKBK 280400Z 36015KT 7000 NSC 39/13 Q0995 NOSIG


Station Type Date Time Source
OKBK Decoded METAR 2021/07/28 04:00 UTC NOAA

Kuwait Internationalairport, Kuwait (OKBK) 29-13N 047-59E 55M
Jul 28, 2021 - 12:00 AM EDT / 2021.07.28 0400 UTC
Wind: from the N (360 degrees) at 17 MPH (15 KT):0
Visibility: 4 mile(s):0
Temperature: 102 F (39 C)
Heat index: 100.6 F (38.1 C):1
Dew Point: 55 F (13 C)
Relative Humidity: 21%
Pressure (altimeter): 29.38 in. Hg (0995 hPa)
ob: OKBK 280400Z 36015KT 7000 NSC 39/13 Q0995 NOSIG
cycle: 4

Station Type Date Time Source
OKBK TAF 2021/07/27 18:39 UTC NOAA

TAF TAF OKBK 271645Z 2718/2824 33012G22KT 7000 NSC
TEMPO 2718/2805 VRB03KT 3000 HZ

Example: see airport list